Plantersville, Mississippi
Current Conditions -  °F | °C
As of 11:53 AM on Monday 22 Dec 2014 (Local Time) from KTUP Reporting Station
Haze Haze  
Wind Chill: 53°   Ceiling: 500
Heat Index: 53°   Visibility: 2mi
Dew Point: 50°   Wind: 8mph
Humidity: 89%   Direction: 170°S
Pressure: 29.79"   Gusts: NA
Location:  34.21°N, 88.66°W
Report Text: KTUP 221753Z 17007KT 2SM BR OVC005 12/10 A2979 RMK AO2 RAE1655 PRESFR SLP088 P0000 60000 T01170100 10117 20106 58023
Loading
Personal Weather Stations






























Interactive Weather Map New forecast layout! Learn more

10-Day Weather Forecast

Advertisements
Track Severe Weather on mobile